createdAt,value
2022-08-28T00:19:53.223Z,80.53
2022-08-28T00:34:37.441Z,80.97
2022-08-28T01:20:06.047Z,83.70
2022-08-28T01:34:58.017Z,82.43
2022-08-28T01:49:49.834Z,83.40
2022-08-28T02:04:43.344Z,83.77
2022-08-28T02:19:35.435Z,83.61
2022-08-28T02:34:26.242Z,83.78
2022-08-28T02:49:17.872Z,84.14
2022-08-28T03:04:10.159Z,83.54
2022-08-28T03:19:02.191Z,84.45
2022-08-28T03:48:46.289Z,86.80
2022-08-28T04:03:38.744Z,86.61
2022-08-28T04:18:31.660Z,86.18
2022-08-28T04:33:23.821Z,84.87
2022-08-28T04:48:15.596Z,85.16
2022-08-28T05:03:06.716Z,83.77
2022-08-28T05:17:59.042Z,82.44
2022-08-28T05:32:50.754Z,82.81
2022-08-28T05:47:42.631Z,82.47
2022-08-28T06:02:36.276Z,81.22
2022-08-28T06:17:31.476Z,79.24
2022-08-28T06:32:23.947Z,77.51
2022-08-28T06:47:15.389Z,76.99
2022-08-28T07:02:07.982Z,75.12
2022-08-28T07:16:59.539Z,75.09
2022-08-28T07:31:51.516Z,74.47
2022-08-28T07:46:43.132Z,73.53
2022-08-28T08:01:37.650Z,73.79
2022-08-28T08:16:31.618Z,73.43
2022-08-28T08:31:28.594Z,72.40
2022-08-28T08:46:24.125Z,71.34
2022-08-28T09:01:34.294Z,70.83
2022-08-28T09:16:31.479Z,70.51
2022-08-28T09:31:29.183Z,70.36
2022-08-28T09:46:25.317Z,69.14
2022-08-28T10:01:28.056Z,66.26
2022-08-28T10:16:27.772Z,64.33
2022-08-28T10:31:35.436Z,63.43
2022-08-28T10:46:47.549Z,62.46
2022-08-28T11:17:01.018Z,59.34
2022-08-28T11:31:56.345Z,59.15
2022-08-28T11:46:49.592Z,59.33
2022-08-28T12:01:41.561Z,60.35
2022-08-28T12:17:00.942Z,59.63
2022-08-28T12:32:13.353Z,55.91
2022-08-28T12:47:09.977Z,57.17
2022-08-28T13:02:04.718Z,55.66
2022-08-28T13:17:01.222Z,53.30
2022-08-28T13:31:56.213Z,53.37
2022-08-28T13:46:52.342Z,50.56
2022-08-28T14:02:03.720Z,51.46
2022-08-28T14:16:59.122Z,51.48
2022-08-28T14:31:52.490Z,48.34
2022-08-28T14:46:45.251Z,46.39
2022-08-28T15:01:40.641Z,47.03
2022-08-28T15:16:31.619Z,46.51
2022-08-28T15:31:25.627Z,45.42
2022-08-28T15:46:17.241Z,46.09
2022-08-28T16:01:06.725Z,46.90
2022-08-28T16:15:57.540Z,48.58
2022-08-28T16:30:49.061Z,47.59
2022-08-28T16:45:41.381Z,47.24
2022-08-28T17:00:32.950Z,46.98
2022-08-28T17:30:49.691Z,46.50
2022-08-28T17:45:41.117Z,47.00
2022-08-28T18:00:35.763Z,46.84
2022-08-28T18:15:26.723Z,47.39
2022-08-28T19:00:52.968Z,48.83
2022-08-28T19:15:44.552Z,49.78
2022-08-28T19:30:35.810Z,51.58
2022-08-28T19:45:26.636Z,52.63
2022-08-28T20:15:11.018Z,54.79
2022-08-28T20:30:07.148Z,56.12
2022-08-28T20:44:53.558Z,55.96
2022-08-28T20:59:45.591Z,55.48
2022-08-28T21:14:37.139Z,56.48
2022-08-28T21:29:28.787Z,57.53
2022-08-28T21:59:11.185Z,60.06
2022-08-28T22:28:54.998Z,61.84
2022-08-28T22:43:49.929Z,63.71
2022-08-28T22:58:42.625Z,63.63
2022-08-28T23:13:33.710Z,64.94
2022-08-28T23:28:24.755Z,65.47
2022-08-28T23:43:16.198Z,65.70
2022-08-28T23:58:07.504Z,66.70
